sensor_id;sensor_type;location;lat;lon;timestamp;P1;durP1;ratioP1;P2;durP2;ratioP2
32198;SDS011;19221;42.656;21.156;2023-02-05T00:01:50;10.90;;;5.22;;
32198;SDS011;19221;42.656;21.156;2023-02-05T00:04:17;11.43;;;5.78;;
32198;SDS011;19221;42.656;21.156;2023-02-05T00:06:43;8.85;;;5.03;;
32198;SDS011;19221;42.656;21.156;2023-02-05T00:09:09;12.40;;;6.57;;
32198;SDS011;19221;42.656;21.156;2023-02-05T00:11:34;10.48;;;5.38;;
32198;SDS011;19221;42.656;21.156;2023-02-05T00:14:00;8.55;;;5.18;;
32198;SDS011;19221;42.656;21.156;2023-02-05T00:16:26;7.88;;;4.35;;
32198;SDS011;19221;42.656;21.156;2023-02-05T00:18:51;10.70;;;5.07;;
32198;SDS011;19221;42.656;21.156;2023-02-05T00:21:17;15.23;;;4.10;;
32198;SDS011;19221;42.656;21.156;2023-02-05T00:23:43;11.65;;;4.20;;
32198;SDS011;19221;42.656;21.156;2023-02-05T00:26:09;5.78;;;3.15;;
32198;SDS011;19221;42.656;21.156;2023-02-05T00:28:35;10.68;;;4.35;;
32198;SDS011;19221;42.656;21.156;2023-02-05T00:31:05;10.07;;;5.57;;
32198;SDS011;19221;42.656;21.156;2023-02-05T00:33:31;9.43;;;5.60;;
32198;SDS011;19221;42.656;21.156;2023-02-05T00:35:57;9.60;;;4.25;;
32198;SDS011;19221;42.656;21.156;2023-02-05T00:38:22;7.47;;;4.45;;
32198;SDS011;19221;42.656;21.156;2023-02-05T00:40:48;7.78;;;4.13;;
32198;SDS011;19221;42.656;21.156;2023-02-05T00:43:13;8.32;;;4.22;;
32198;SDS011;19221;42.656;21.156;2023-02-05T00:45:39;6.57;;;4.10;;
32198;SDS011;19221;42.656;21.156;2023-02-05T00:48:05;11.15;;;5.25;;
32198;SDS011;19221;42.656;21.156;2023-02-05T00:50:31;7.90;;;4.47;;
32198;SDS011;19221;42.656;21.156;2023-02-05T00:52:57;10.32;;;5.53;;
32198;SDS011;19221;42.656;21.156;2023-02-05T00:55:23;9.27;;;5.55;;
32198;SDS011;19221;42.656;21.156;2023-02-05T00:57:48;8.43;;;5.25;;
32198;SDS011;19221;42.656;21.156;2023-02-05T01:00:14;8.65;;;4.57;;
32198;SDS011;19221;42.656;21.156;2023-02-05T01:02:40;10.68;;;5.70;;
32198;SDS011;19221;42.656;21.156;2023-02-05T01:05:06;12.68;;;5.03;;
32198;SDS011;19221;42.656;21.156;2023-02-05T01:07:32;9.60;;;4.00;;
32198;SDS011;19221;42.656;21.156;2023-02-05T01:09:57;5.43;;;3.58;;
32198;SDS011;19221;42.656;21.156;2023-02-05T01:12:23;8.50;;;4.20;;
32198;SDS011;19221;42.656;21.156;2023-02-05T01:14:49;6.88;;;3.88;;
32198;SDS011;19221;42.656;21.156;2023-02-05T01:17:15;15.80;;;3.85;;
32198;SDS011;19221;42.656;21.156;2023-02-05T01:19:41;6.28;;;3.33;;
32198;SDS011;19221;42.656;21.156;2023-02-05T01:22:06;7.28;;;3.80;;
32198;SDS011;19221;42.656;21.156;2023-02-05T01:24:32;5.18;;;3.30;;
32198;SDS011;19221;42.656;21.156;2023-02-05T01:26:59;5.40;;;3.25;;
32198;SDS011;19221;42.656;21.156;2023-02-05T01:29:25;6.45;;;3.55;;
32198;SDS011;19221;42.656;21.156;2023-02-05T01:31:51;5.00;;;3.08;;
32198;SDS011;19221;42.656;21.156;2023-02-05T01:34:16;3.92;;;2.88;;
32198;SDS011;19221;42.656;21.156;2023-02-05T01:36:42;5.47;;;2.92;;
32198;SDS011;19221;42.656;21.156;2023-02-05T01:39:08;6.15;;;3.33;;
32198;SDS011;19221;42.656;21.156;2023-02-05T01:41:33;4.60;;;3.00;;
32198;SDS011;19221;42.656;21.156;2023-02-05T01:44:06;5.90;;;2.97;;
32198;SDS011;19221;42.656;21.156;2023-02-05T01:46:33;9.73;;;3.40;;
32198;SDS011;19221;42.656;21.156;2023-02-05T01:48:59;5.45;;;2.75;;
32198;SDS011;19221;42.656;21.156;2023-02-05T01:51:26;7.68;;;3.55;;
32198;SDS011;19221;42.656;21.156;2023-02-05T01:53:53;5.68;;;3.00;;
32198;SDS011;19221;42.656;21.156;2023-02-05T01:56:23;7.40;;;3.00;;
32198;SDS011;19221;42.656;21.156;2023-02-05T01:58:53;5.07;;;2.95;;
32198;SDS011;19221;42.656;21.156;2023-02-05T02:01:21;6.80;;;3.17;;
32198;SDS011;19221;42.656;21.156;2023-02-05T02:03:47;7.75;;;2.97;;
32198;SDS011;19221;42.656;21.156;2023-02-05T02:06:13;11.70;;;3.10;;
32198;SDS011;19221;42.656;21.156;2023-02-05T02:08:39;6.03;;;2.97;;
32198;SDS011;19221;42.656;21.156;2023-02-05T02:11:05;5.13;;;2.63;;
32198;SDS011;19221;42.656;21.156;2023-02-05T02:13:32;6.35;;;2.67;;
32198;SDS011;19221;42.656;21.156;2023-02-05T02:15:59;11.35;;;3.33;;
32198;SDS011;19221;42.656;21.156;2023-02-05T02:18:25;6.55;;;3.08;;
32198;SDS011;19221;42.656;21.156;2023-02-05T02:23:34;5.70;;;3.03;;
32198;SDS011;19221;42.656;21.156;2023-02-05T02:26:10;5.65;;;3.08;;
32198;SDS011;19221;42.656;21.156;2023-02-05T02:28:42;6.03;;;3.13;;
32198;SDS011;19221;42.656;21.156;2023-02-05T02:31:15;8.18;;;2.97;;
32198;SDS011;19221;42.656;21.156;2023-02-05T02:33:45;5.55;;;3.13;;
32198;SDS011;19221;42.656;21.156;2023-02-05T02:36:15;10.32;;;3.42;;
32198;SDS011;19221;42.656;21.156;2023-02-05T02:38:45;5.72;;;2.75;;
32198;SDS011;19221;42.656;21.156;2023-02-05T02:41:16;5.43;;;3.23;;
32198;SDS011;19221;42.656;21.156;2023-02-05T02:43:58;4.80;;;2.83;;
32198;SDS011;19221;42.656;21.156;2023-02-05T02:46:37;7.55;;;3.30;;
32198;SDS011;19221;42.656;21.156;2023-02-05T02:49:05;8.68;;;3.75;;
32198;SDS011;19221;42.656;21.156;2023-02-05T02:51:31;5.38;;;2.85;;
32198;SDS011;19221;42.656;21.156;2023-02-05T02:53:59;7.63;;;2.90;;
32198;SDS011;19221;42.656;21.156;2023-02-05T02:56:26;5.35;;;3.00;;
32198;SDS011;19221;42.656;21.156;2023-02-05T02:58:56;4.10;;;2.80;;
32198;SDS011;19221;42.656;21.156;2023-02-05T03:01:23;6.15;;;3.30;;
32198;SDS011;19221;42.656;21.156;2023-02-05T03:03:51;5.22;;;3.38;;
32198;SDS011;19221;42.656;21.156;2023-02-05T03:06:16;5.53;;;3.20;;
32198;SDS011;19221;42.656;21.156;2023-02-05T03:08:51;5.55;;;2.92;;
32198;SDS011;19221;42.656;21.156;2023-02-05T03:11:18;5.15;;;3.22;;
32198;SDS011;19221;42.656;21.156;2023-02-05T03:13:44;5.18;;;3.20;;
32198;SDS011;19221;42.656;21.156;2023-02-05T03:16:11;5.47;;;3.15;;
32198;SDS011;19221;42.656;21.156;2023-02-05T03:18:37;7.82;;;3.67;;
32198;SDS011;19221;42.656;21.156;2023-02-05T03:21:04;6.25;;;3.40;;
32198;SDS011;19221;42.656;21.156;2023-02-05T03:23:30;5.13;;;2.78;;
32198;SDS011;19221;42.656;21.156;2023-02-05T03:25:56;6.93;;;3.38;;
32198;SDS011;19221;42.656;21.156;2023-02-05T03:28:22;10.50;;;2.95;;
32198;SDS011;19221;42.656;21.156;2023-02-05T03:30:51;6.63;;;2.58;;
32198;SDS011;19221;42.656;21.156;2023-02-05T03:33:26;5.55;;;3.30;;
32198;SDS011;19221;42.656;21.156;2023-02-05T03:38:32;11.25;;;2.90;;
32198;SDS011;19221;42.656;21.156;2023-02-05T03:41:06;3.90;;;2.83;;
32198;SDS011;19221;42.656;21.156;2023-02-05T03:48:43;6.18;;;3.40;;
32198;SDS011;19221;42.656;21.156;2023-02-05T03:56:23;5.10;;;2.88;;
32198;SDS011;19221;42.656;21.156;2023-02-05T03:58:51;5.18;;;2.90;;
32198;SDS011;19221;42.656;21.156;2023-02-05T04:01:18;7.90;;;3.00;;
32198;SDS011;19221;42.656;21.156;2023-02-05T04:03:44;6.10;;;2.72;;
32198;SDS011;19221;42.656;21.156;2023-02-05T04:06:10;6.75;;;2.88;;
32198;SDS011;19221;42.656;21.156;2023-02-05T04:08:36;5.47;;;2.83;;
32198;SDS011;19221;42.656;21.156;2023-02-05T04:11:01;4.97;;;3.17;;
32198;SDS011;19221;42.656;21.156;2023-02-05T04:13:27;4.90;;;2.80;;
32198;SDS011;19221;42.656;21.156;2023-02-05T04:15:53;5.68;;;2.88;;
32198;SDS011;19221;42.656;21.156;2023-02-05T04:18:18;4.93;;;2.42;;
32198;SDS011;19221;42.656;21.156;2023-02-05T04:20:44;4.82;;;2.97;;
32198;SDS011;19221;42.656;21.156;2023-02-05T04:23:10;5.10;;;2.70;;
32198;SDS011;19221;42.656;21.156;2023-02-05T04:25:36;5.95;;;3.20;;
32198;SDS011;19221;42.656;21.156;2023-02-05T04:28:02;18.48;;;3.60;;
32198;SDS011;19221;42.656;21.156;2023-02-05T04:30:28;4.05;;;2.38;;
32198;SDS011;19221;42.656;21.156;2023-02-05T04:32:54;5.53;;;2.70;;
32198;SDS011;19221;42.656;21.156;2023-02-05T04:35:19;5.50;;;2.78;;
32198;SDS011;19221;42.656;21.156;2023-02-05T04:37:45;4.78;;;2.20;;
32198;SDS011;19221;42.656;21.156;2023-02-05T04:40:11;5.82;;;2.67;;
32198;SDS011;19221;42.656;21.156;2023-02-05T04:42:36;5.43;;;2.60;;
32198;SDS011;19221;42.656;21.156;2023-02-05T04:45:02;4.90;;;2.55;;
32198;SDS011;19221;42.656;21.156;2023-02-05T04:47:30;5.60;;;2.70;;
32198;SDS011;19221;42.656;21.156;2023-02-05T04:49:56;6.18;;;3.40;;
32198;SDS011;19221;42.656;21.156;2023-02-05T04:52:21;5.18;;;3.30;;
32198;SDS011;19221;42.656;21.156;2023-02-05T04:54:47;4.80;;;2.70;;
32198;SDS011;19221;42.656;21.156;2023-02-05T04:57:12;5.03;;;2.80;;
32198;SDS011;19221;42.656;21.156;2023-02-05T04:59:38;4.93;;;2.42;;
32198;SDS011;19221;42.656;21.156;2023-02-05T05:02:04;4.35;;;2.63;;
32198;SDS011;19221;42.656;21.156;2023-02-05T05:04:29;3.60;;;2.60;;
32198;SDS011;19221;42.656;21.156;2023-02-05T05:06:56;3.67;;;2.58;;
32198;SDS011;19221;42.656;21.156;2023-02-05T05:09:22;4.80;;;3.05;;
32198;SDS011;19221;42.656;21.156;2023-02-05T05:11:50;8.20;;;3.53;;
32198;SDS011;19221;42.656;21.156;2023-02-05T05:14:15;7.13;;;3.15;;
32198;SDS011;19221;42.656;21.156;2023-02-05T05:16:41;6.05;;;3.40;;
32198;SDS011;19221;42.656;21.156;2023-02-05T05:19:07;5.15;;;2.85;;
32198;SDS011;19221;42.656;21.156;2023-02-05T05:21:32;5.40;;;2.75;;
32198;SDS011;19221;42.656;21.156;2023-02-05T05:23:58;5.57;;;2.58;;
32198;SDS011;19221;42.656;21.156;2023-02-05T05:26:23;7.57;;;3.17;;
32198;SDS011;19221;42.656;21.156;2023-02-05T05:28:55;4.68;;;2.70;;
32198;SDS011;19221;42.656;21.156;2023-02-05T05:31:21;4.18;;;2.70;;
32198;SDS011;19221;42.656;21.156;2023-02-05T05:33:47;4.93;;;3.00;;
32198;SDS011;19221;42.656;21.156;2023-02-05T05:36:13;5.30;;;3.30;;
32198;SDS011;19221;42.656;21.156;2023-02-05T05:38:39;5.65;;;2.83;;
32198;SDS011;19221;42.656;21.156;2023-02-05T05:41:05;9.13;;;2.88;;
32198;SDS011;19221;42.656;21.156;2023-02-05T05:43:50;7.40;;;3.08;;
32198;SDS011;19221;42.656;21.156;2023-02-05T05:46:17;6.30;;;2.97;;
32198;SDS011;19221;42.656;21.156;2023-02-05T05:48:54;6.75;;;3.35;;
32198;SDS011;19221;42.656;21.156;2023-02-05T05:51:20;7.88;;;3.63;;
32198;SDS011;19221;42.656;21.156;2023-02-05T05:53:46;6.95;;;4.13;;
32198;SDS011;19221;42.656;21.156;2023-02-05T05:56:12;5.00;;;3.10;;
32198;SDS011;19221;42.656;21.156;2023-02-05T05:58:38;10.20;;;3.70;;
32198;SDS011;19221;42.656;21.156;2023-02-05T06:01:04;8.65;;;4.68;;
32198;SDS011;19221;42.656;21.156;2023-02-05T06:03:30;7.00;;;3.97;;
32198;SDS011;19221;42.656;21.156;2023-02-05T06:05:55;8.30;;;4.43;;
32198;SDS011;19221;42.656;21.156;2023-02-05T06:08:21;8.45;;;3.85;;
32198;SDS011;19221;42.656;21.156;2023-02-05T06:10:46;6.95;;;3.63;;
32198;SDS011;19221;42.656;21.156;2023-02-05T06:13:12;8.25;;;3.95;;
32198;SDS011;19221;42.656;21.156;2023-02-05T06:15:38;9.15;;;4.50;;
32198;SDS011;19221;42.656;21.156;2023-02-05T06:18:03;9.68;;;4.30;;
32198;SDS011;19221;42.656;21.156;2023-02-05T06:20:29;6.75;;;3.58;;
32198;SDS011;19221;42.656;21.156;2023-02-05T06:22:55;8.52;;;3.97;;
32198;SDS011;19221;42.656;21.156;2023-02-05T06:25:20;6.53;;;3.47;;
32198;SDS011;19221;42.656;21.156;2023-02-05T06:27:46;6.50;;;3.63;;
32198;SDS011;19221;42.656;21.156;2023-02-05T06:30:12;5.95;;;3.45;;
32198;SDS011;19221;42.656;21.156;2023-02-05T06:32:37;5.65;;;3.63;;
32198;SDS011;19221;42.656;21.156;2023-02-05T06:35:03;7.38;;;3.78;;
32198;SDS011;19221;42.656;21.156;2023-02-05T06:37:29;5.93;;;3.22;;
32198;SDS011;19221;42.656;21.156;2023-02-05T06:39:55;15.85;;;3.35;;
32198;SDS011;19221;42.656;21.156;2023-02-05T06:42:21;6.97;;;3.17;;
32198;SDS011;19221;42.656;21.156;2023-02-05T06:44:47;6.38;;;3.40;;
32198;SDS011;19221;42.656;21.156;2023-02-05T06:47:13;5.13;;;3.15;;
32198;SDS011;19221;42.656;21.156;2023-02-05T06:49:38;7.60;;;4.05;;
32198;SDS011;19221;42.656;21.156;2023-02-05T06:52:04;7.65;;;4.20;;
32198;SDS011;19221;42.656;21.156;2023-02-05T06:54:30;5.90;;;3.38;;
32198;SDS011;19221;42.656;21.156;2023-02-05T06:56:56;5.85;;;3.10;;
32198;SDS011;19221;42.656;21.156;2023-02-05T06:59:22;7.55;;;4.30;;
32198;SDS011;19221;42.656;21.156;2023-02-05T07:01:47;9.10;;;4.85;;
32198;SDS011;19221;42.656;21.156;2023-02-05T07:04:13;9.82;;;4.47;;
32198;SDS011;19221;42.656;21.156;2023-02-05T07:06:39;10.05;;;4.43;;
32198;SDS011;19221;42.656;21.156;2023-02-05T07:09:05;7.07;;;3.67;;
32198;SDS011;19221;42.656;21.156;2023-02-05T07:11:30;7.43;;;4.47;;
32198;SDS011;19221;42.656;21.156;2023-02-05T07:13:58;8.68;;;4.05;;
32198;SDS011;19221;42.656;21.156;2023-02-05T07:16:24;8.70;;;4.72;;
32198;SDS011;19221;42.656;21.156;2023-02-05T07:18:50;8.98;;;4.55;;
32198;SDS011;19221;42.656;21.156;2023-02-05T07:21:17;10.27;;;5.45;;
32198;SDS011;19221;42.656;21.156;2023-02-05T07:23:43;9.88;;;5.35;;
32198;SDS011;19221;42.656;21.156;2023-02-05T07:26:09;10.43;;;5.43;;
32198;SDS011;19221;42.656;21.156;2023-02-05T07:28:35;9.75;;;5.22;;
32198;SDS011;19221;42.656;21.156;2023-02-05T07:31:11;7.95;;;4.05;;
32198;SDS011;19221;42.656;21.156;2023-02-05T07:33:39;9.15;;;4.95;;
32198;SDS011;19221;42.656;21.156;2023-02-05T07:36:06;9.07;;;5.22;;
32198;SDS011;19221;42.656;21.156;2023-02-05T07:38:32;11.93;;;6.35;;
32198;SDS011;19221;42.656;21.156;2023-02-05T07:40:58;11.00;;;5.47;;
32198;SDS011;19221;42.656;21.156;2023-02-05T07:43:24;8.82;;;4.68;;
32198;SDS011;19221;42.656;21.156;2023-02-05T07:45:56;10.23;;;5.53;;
32198;SDS011;19221;42.656;21.156;2023-02-05T07:48:22;12.95;;;6.95;;
32198;SDS011;19221;42.656;21.156;2023-02-05T07:50:47;24.10;;;11.45;;
32198;SDS011;19221;42.656;21.156;2023-02-05T07:53:13;20.02;;;9.88;;
32198;SDS011;19221;42.656;21.156;2023-02-05T07:55:38;17.52;;;9.25;;
32198;SDS011;19221;42.656;21.156;2023-02-05T07:58:04;61.65;;;25.55;;
32198;SDS011;19221;42.656;21.156;2023-02-05T08:00:30;47.50;;;20.15;;
32198;SDS011;19221;42.656;21.156;2023-02-05T08:02:56;29.67;;;13.25;;
32198;SDS011;19221;42.656;21.156;2023-02-05T08:05:22;19.23;;;10.00;;
32198;SDS011;19221;42.656;21.156;2023-02-05T08:07:48;29.83;;;14.07;;
32198;SDS011;19221;42.656;21.156;2023-02-05T08:10:13;16.63;;;7.90;;
32198;SDS011;19221;42.656;21.156;2023-02-05T08:12:39;12.75;;;7.45;;
32198;SDS011;19221;42.656;21.156;2023-02-05T08:15:05;10.85;;;5.88;;
32198;SDS011;19221;42.656;21.156;2023-02-05T08:17:31;15.10;;;6.95;;
32198;SDS011;19221;42.656;21.156;2023-02-05T08:19:57;10.07;;;5.45;;
32198;SDS011;19221;42.656;21.156;2023-02-05T08:22:24;9.05;;;5.28;;
32198;SDS011;19221;42.656;21.156;2023-02-05T08:24:49;10.20;;;5.75;;
32198;SDS011;19221;42.656;21.156;2023-02-05T08:27:15;17.65;;;6.65;;
32198;SDS011;19221;42.656;21.156;2023-02-05T08:29:41;13.25;;;6.90;;
32198;SDS011;19221;42.656;21.156;2023-02-05T08:32:07;13.00;;;7.72;;
32198;SDS011;19221;42.656;21.156;2023-02-05T08:34:32;19.00;;;9.15;;
32198;SDS011;19221;42.656;21.156;2023-02-05T08:37:00;13.57;;;7.45;;
32198;SDS011;19221;42.656;21.156;2023-02-05T08:39:25;11.63;;;6.07;;
32198;SDS011;19221;42.656;21.156;2023-02-05T08:41:51;14.55;;;6.85;;
32198;SDS011;19221;42.656;21.156;2023-02-05T08:44:17;9.32;;;5.28;;
32198;SDS011;19221;42.656;21.156;2023-02-05T08:46:42;11.75;;;5.72;;
32198;SDS011;19221;42.656;21.156;2023-02-05T08:49:08;13.27;;;7.07;;
32198;SDS011;19221;42.656;21.156;2023-02-05T08:51:33;11.82;;;6.80;;
32198;SDS011;19221;42.656;21.156;2023-02-05T08:54:00;11.10;;;5.97;;
32198;SDS011;19221;42.656;21.156;2023-02-05T08:56:25;11.45;;;5.43;;
32198;SDS011;19221;42.656;21.156;2023-02-05T08:58:51;14.95;;;7.80;;
32198;SDS011;19221;42.656;21.156;2023-02-05T09:01:17;10.50;;;6.28;;
32198;SDS011;19221;42.656;21.156;2023-02-05T09:03:43;13.38;;;6.95;;
32198;SDS011;19221;42.656;21.156;2023-02-05T09:06:11;15.90;;;7.53;;
32198;SDS011;19221;42.656;21.156;2023-02-05T09:08:37;14.38;;;7.05;;
32198;SDS011;19221;42.656;21.156;2023-02-05T09:11:03;18.30;;;7.60;;
32198;SDS011;19221;42.656;21.156;2023-02-05T09:13:29;19.40;;;7.95;;
32198;SDS011;19221;42.656;21.156;2023-02-05T09:15:55;13.95;;;7.30;;
32198;SDS011;19221;42.656;21.156;2023-02-05T09:18:20;17.23;;;8.82;;
32198;SDS011;19221;42.656;21.156;2023-02-05T09:20:47;17.88;;;8.80;;
32198;SDS011;19221;42.656;21.156;2023-02-05T09:23:13;17.58;;;9.13;;
32198;SDS011;19221;42.656;21.156;2023-02-05T09:25:39;19.70;;;9.98;;
32198;SDS011;19221;42.656;21.156;2023-02-05T09:28:06;19.40;;;10.68;;
32198;SDS011;19221;42.656;21.156;2023-02-05T09:30:34;18.85;;;9.80;;
32198;SDS011;19221;42.656;21.156;2023-02-05T09:33:00;15.10;;;8.43;;
32198;SDS011;19221;42.656;21.156;2023-02-05T09:35:25;15.20;;;8.50;;
32198;SDS011;19221;42.656;21.156;2023-02-05T09:37:51;16.40;;;7.05;;
32198;SDS011;19221;42.656;21.156;2023-02-05T09:40:18;14.65;;;8.32;;
32198;SDS011;19221;42.656;21.156;2023-02-05T09:50:28;16.92;;;9.38;;
32198;SDS011;19221;42.656;21.156;2023-02-05T09:53:01;17.38;;;7.82;;
32198;SDS011;19221;42.656;21.156;2023-02-05T09:55:28;20.88;;;11.07;;
32198;SDS011;19221;42.656;21.156;2023-02-05T09:57:55;18.63;;;9.07;;
32198;SDS011;19221;42.656;21.156;2023-02-05T10:00:28;19.30;;;10.93;;
32198;SDS011;19221;42.656;21.156;2023-02-05T10:05:20;17.20;;;8.98;;
32198;SDS011;19221;42.656;21.156;2023-02-05T10:07:49;17.35;;;8.65;;
32198;SDS011;19221;42.656;21.156;2023-02-05T10:21:00;17.95;;;8.30;;
32198;SDS011;19221;42.656;21.156;2023-02-05T10:24:11;19.88;;;10.40;;
32198;SDS011;19221;42.656;21.156;2023-02-05T10:26:14;14.27;;;7.97;;
32198;SDS011;19221;42.656;21.156;2023-02-05T10:33:45;26.25;;;14.27;;
32198;SDS011;19221;42.656;21.156;2023-02-05T10:36:12;16.80;;;8.23;;
32198;SDS011;19221;42.656;21.156;2023-02-05T10:38:40;15.18;;;8.23;;
32198;SDS011;19221;42.656;21.156;2023-02-05T10:41:30;15.85;;;9.02;;
32198;SDS011;19221;42.656;21.156;2023-02-05T10:43:59;19.73;;;11.00;;
32198;SDS011;19221;42.656;21.156;2023-02-05T10:46:28;21.50;;;10.45;;
32198;SDS011;19221;42.656;21.156;2023-02-05T10:48:56;19.13;;;9.32;;
32198;SDS011;19221;42.656;21.156;2023-02-05T10:53:48;18.48;;;9.52;;
32198;SDS011;19221;42.656;21.156;2023-02-05T10:56:15;19.25;;;9.70;;
32198;SDS011;19221;42.656;21.156;2023-02-05T11:01:11;31.20;;;15.85;;
32198;SDS011;19221;42.656;21.156;2023-02-05T11:03:38;18.60;;;8.65;;
32198;SDS011;19221;42.656;21.156;2023-02-05T11:06:08;25.52;;;14.15;;
32198;SDS011;19221;42.656;21.156;2023-02-05T11:08:36;17.30;;;9.85;;
32198;SDS011;19221;42.656;21.156;2023-02-05T11:11:02;26.77;;;12.80;;
32198;SDS011;19221;42.656;21.156;2023-02-05T11:13:28;21.27;;;8.43;;
32198;SDS011;19221;42.656;21.156;2023-02-05T11:15:58;14.30;;;9.25;;
32198;SDS011;19221;42.656;21.156;2023-02-05T11:18:44;20.92;;;10.52;;
32198;SDS011;19221;42.656;21.156;2023-02-05T11:21:11;13.88;;;7.90;;
32198;SDS011;19221;42.656;21.156;2023-02-05T11:23:37;37.72;;;17.40;;
32198;SDS011;19221;42.656;21.156;2023-02-05T11:28:33;15.93;;;7.72;;
32198;SDS011;19221;42.656;21.156;2023-02-05T11:33:45;11.35;;;6.28;;
32198;SDS011;19221;42.656;21.156;2023-02-05T11:36:15;10.90;;;7.15;;
32198;SDS011;19221;42.656;21.156;2023-02-05T11:41:07;13.43;;;8.23;;
32198;SDS011;19221;42.656;21.156;2023-02-05T11:43:35;12.27;;;6.30;;
32198;SDS011;19221;42.656;21.156;2023-02-05T11:46:03;14.40;;;7.70;;
32198;SDS011;19221;42.656;21.156;2023-02-05T11:50:56;14.23;;;7.88;;
32198;SDS011;19221;42.656;21.156;2023-02-05T11:53:21;21.65;;;11.50;;
32198;SDS011;19221;42.656;21.156;2023-02-05T11:55:55;23.40;;;11.52;;
32198;SDS011;19221;42.656;21.156;2023-02-05T11:58:23;13.88;;;7.53;;
32198;SDS011;19221;42.656;21.156;2023-02-05T12:00:53;17.25;;;8.35;;
32198;SDS011;19221;42.656;21.156;2023-02-05T12:03:22;13.27;;;7.65;;
32198;SDS011;19221;42.656;21.156;2023-02-05T12:05:53;12.73;;;7.15;;
32198;SDS011;19221;42.656;21.156;2023-02-05T12:08:25;13.18;;;7.72;;
32198;SDS011;19221;42.656;21.156;2023-02-05T12:11:01;13.40;;;7.72;;
32198;SDS011;19221;42.656;21.156;2023-02-05T12:21:08;17.08;;;8.73;;
32198;SDS011;19221;42.656;21.156;2023-02-05T12:26:21;14.98;;;7.63;;
32198;SDS011;19221;42.656;21.156;2023-02-05T12:31:39;27.17;;;13.07;;
32198;SDS011;19221;42.656;21.156;2023-02-05T12:34:15;29.17;;;13.88;;
32198;SDS011;19221;42.656;21.156;2023-02-05T12:36:53;17.75;;;8.23;;
32198;SDS011;19221;42.656;21.156;2023-02-05T12:42:28;29.67;;;12.00;;
32198;SDS011;19221;42.656;21.156;2023-02-05T12:58:19;22.48;;;11.77;;
32198;SDS011;19221;42.656;21.156;2023-02-05T13:00:56;17.63;;;9.73;;
32198;SDS011;19221;42.656;21.156;2023-02-05T13:03:35;17.27;;;8.93;;
32198;SDS011;19221;42.656;21.156;2023-02-05T13:06:05;32.83;;;15.40;;
32198;SDS011;19221;42.656;21.156;2023-02-05T13:11:02;28.27;;;14.85;;
32198;SDS011;19221;42.656;21.156;2023-02-05T13:13:43;24.88;;;12.57;;
32198;SDS011;19221;42.656;21.156;2023-02-05T13:16:13;28.70;;;15.02;;
32198;SDS011;19221;42.656;21.156;2023-02-05T13:18:44;49.78;;;12.32;;
32198;SDS011;19221;42.656;21.156;2023-02-05T13:21:14;12.50;;;7.07;;
32198;SDS011;19221;42.656;21.156;2023-02-05T13:24:01;28.98;;;14.13;;
32198;SDS011;19221;42.656;21.156;2023-02-05T13:26:46;20.48;;;9.95;;
32198;SDS011;19221;42.656;21.156;2023-02-05T13:29:32;25.63;;;13.25;;
32198;SDS011;19221;42.656;21.156;2023-02-05T13:32:02;19.90;;;10.85;;
32198;SDS011;19221;42.656;21.156;2023-02-05T13:34:29;22.83;;;10.85;;
32198;SDS011;19221;42.656;21.156;2023-02-05T13:39:30;18.42;;;9.93;;
32198;SDS011;19221;42.656;21.156;2023-02-05T13:44:59;24.50;;;12.45;;
32198;SDS011;19221;42.656;21.156;2023-02-05T13:58:07;15.30;;;9.13;;
32198;SDS011;19221;42.656;21.156;2023-02-05T14:00:25;16.27;;;9.15;;
32198;SDS011;19221;42.656;21.156;2023-02-05T14:02:55;14.77;;;7.40;;
32198;SDS011;19221;42.656;21.156;2023-02-05T14:05:40;18.60;;;9.52;;
32198;SDS011;19221;42.656;21.156;2023-02-05T14:08:17;24.58;;;12.02;;
32198;SDS011;19221;42.656;21.156;2023-02-05T14:10:44;21.88;;;11.00;;
32198;SDS011;19221;42.656;21.156;2023-02-05T14:15:44;28.08;;;13.73;;
32198;SDS011;19221;42.656;21.156;2023-02-05T14:18:11;26.50;;;11.32;;
32198;SDS011;19221;42.656;21.156;2023-02-05T14:20:39;21.42;;;10.90;;
32198;SDS011;19221;42.656;21.156;2023-02-05T14:23:11;24.20;;;10.85;;
32198;SDS011;19221;42.656;21.156;2023-02-05T14:38:50;17.20;;;9.50;;
32198;SDS011;19221;42.656;21.156;2023-02-05T14:41:22;18.30;;;10.13;;
32198;SDS011;19221;42.656;21.156;2023-02-05T14:44:35;22.08;;;11.98;;
32198;SDS011;19221;42.656;21.156;2023-02-05T14:49:02;17.17;;;9.52;;
32198;SDS011;19221;42.656;21.156;2023-02-05T14:51:41;21.70;;;10.95;;
32198;SDS011;19221;42.656;21.156;2023-02-05T14:54:16;18.17;;;9.82;;
32198;SDS011;19221;42.656;21.156;2023-02-05T14:56:50;14.73;;;8.50;;
32198;SDS011;19221;42.656;21.156;2023-02-05T14:59:26;16.10;;;9.35;;
32198;SDS011;19221;42.656;21.156;2023-02-05T15:01:57;23.00;;;15.85;;
32198;SDS011;19221;42.656;21.156;2023-02-05T15:06:58;13.38;;;7.10;;
32198;SDS011;19221;42.656;21.156;2023-02-05T15:10:00;22.93;;;10.60;;
32198;SDS011;19221;42.656;21.156;2023-02-05T15:12:27;22.63;;;10.35;;
32198;SDS011;19221;42.656;21.156;2023-02-05T15:14:55;26.77;;;12.48;;
32198;SDS011;19221;42.656;21.156;2023-02-05T15:20:04;17.40;;;9.05;;
32198;SDS011;19221;42.656;21.156;2023-02-05T15:22:37;20.55;;;11.95;;
32198;SDS011;19221;42.656;21.156;2023-02-05T15:25:07;25.20;;;13.45;;
32198;SDS011;19221;42.656;21.156;2023-02-05T15:27:44;17.85;;;9.95;;
32198;SDS011;19221;42.656;21.156;2023-02-05T15:30:13;21.60;;;12.02;;
32198;SDS011;19221;42.656;21.156;2023-02-05T15:32:46;25.58;;;13.57;;
32198;SDS011;19221;42.656;21.156;2023-02-05T15:35:14;23.25;;;12.02;;
32198;SDS011;19221;42.656;21.156;2023-02-05T15:37:42;25.15;;;12.52;;
32198;SDS011;19221;42.656;21.156;2023-02-05T15:40:17;22.15;;;12.02;;
32198;SDS011;19221;42.656;21.156;2023-02-05T15:42:44;20.35;;;10.75;;
32198;SDS011;19221;42.656;21.156;2023-02-05T15:47:58;13.82;;;7.70;;
32198;SDS011;19221;42.656;21.156;2023-02-05T15:50:24;18.90;;;9.63;;
32198;SDS011;19221;42.656;21.156;2023-02-05T15:52:49;26.48;;;13.15;;
32198;SDS011;19221;42.656;21.156;2023-02-05T15:55:16;26.33;;;13.65;;
32198;SDS011;19221;42.656;21.156;2023-02-05T15:57:43;30.95;;;16.10;;
32198;SDS011;19221;42.656;21.156;2023-02-05T16:00:10;29.33;;;14.65;;
32198;SDS011;19221;42.656;21.156;2023-02-05T16:02:43;27.95;;;15.70;;
32198;SDS011;19221;42.656;21.156;2023-02-05T16:05:18;17.92;;;10.90;;
32198;SDS011;19221;42.656;21.156;2023-02-05T16:07:44;29.92;;;15.85;;
32198;SDS011;19221;42.656;21.156;2023-02-05T16:10:19;25.13;;;14.45;;
32198;SDS011;19221;42.656;21.156;2023-02-05T16:13:05;20.48;;;12.32;;
32198;SDS011;19221;42.656;21.156;2023-02-05T16:18:03;30.52;;;16.02;;
32198;SDS011;19221;42.656;21.156;2023-02-05T16:20:36;34.90;;;16.88;;
32198;SDS011;19221;42.656;21.156;2023-02-05T16:23:08;26.58;;;14.98;;
32198;SDS011;19221;42.656;21.156;2023-02-05T16:28:02;28.08;;;15.57;;
32198;SDS011;19221;42.656;21.156;2023-02-05T16:30:31;34.25;;;17.38;;
32198;SDS011;19221;42.656;21.156;2023-02-05T16:32:58;25.98;;;14.48;;
32198;SDS011;19221;42.656;21.156;2023-02-05T16:35:30;27.92;;;14.82;;
32198;SDS011;19221;42.656;21.156;2023-02-05T16:37:56;29.02;;;14.82;;
32198;SDS011;19221;42.656;21.156;2023-02-05T16:40:32;24.30;;;13.02;;
32198;SDS011;19221;42.656;21.156;2023-02-05T16:43:03;26.52;;;14.32;;
32198;SDS011;19221;42.656;21.156;2023-02-05T16:45:41;24.02;;;13.18;;